Time;durP1;ratioP1;P1;durP2;ratioP2;P2;SDS_P1;SDS_P2;PMS_P1;PMS_P2;Temp;Humidity;BMP_temperature;BMP_pressure;BME280_temperature;BME280_humidity;BME280_pressure;Samples;Min_cycle;Max_cycle;Signal;HPM_P1;HPM_P2
2022/12/29 00:01:37;;;;;;;9.90;1.83;;;;;;;7.80;100.00;98632.47;5026884;28;20630;-51
2022/12/29 00:04:03;;;;;;;7.68;1.23;;;;;;;7.78;100.00;98616.84;5023810;28;20750;-53
2022/12/29 00:06:30;;;;;;;11.63;2.03;;;;;;;7.85;100.00;98630.00;5018465;28;20076;-55
2022/12/29 00:08:55;;;;;;;3.97;1.02;;;;;;;7.81;100.00;98624.34;5019049;28;20187;-53
2022/12/29 00:11:23;;;;;;;20.25;2.80;;;;;;;7.90;100.00;98634.59;5014726;28;20392;-56
2022/12/29 00:16:34;;;;;;;13.55;2.60;;;;;;;7.83;100.00;98629.41;5022607;28;20044;-60
2022/12/29 00:19:00;;;;;;;14.77;3.00;;;;;;;7.88;100.00;98624.28;5023523;28;20029;-55
2022/12/29 00:35:44;;;;;;;11.40;1.73;;;;;;;7.86;100.00;98616.56;5020516;28;20095;-54
2022/12/29 00:46:23;;;;;;;9.45;3.08;;;;;;;7.91;100.00;98628.31;5016742;28;20044;-62
2022/12/29 00:51:32;;;;;;;11.10;2.65;;;;;;;7.91;100.00;98613.28;5022926;28;20394;-54
2022/12/29 00:53:58;;;;;;;18.92;2.20;;;;;;;7.74;100.00;98617.50;5018535;28;20026;-53
2022/12/29 00:56:23;;;;;;;16.08;2.28;;;;;;;7.75;100.00;98619.13;5017548;28;20180;-54
2022/12/29 00:58:48;;;;;;;10.25;1.55;;;;;;;7.81;100.00;98613.78;5020055;28;20160;-55
2022/12/29 01:01:14;;;;;;;12.38;2.30;;;;;;;7.94;100.00;98612.84;5020927;28;20207;-54
2022/12/29 01:03:39;;;;;;;11.45;1.92;;;;;;;7.93;100.00;98619.16;5023100;28;20033;-63
2022/12/29 01:06:07;;;;;;;4.55;1.60;;;;;;;8.03;100.00;98616.81;5018526;28;20030;-57
2022/12/29 01:08:33;;;;;;;16.38;3.28;;;;;;;8.06;100.00;98602.38;5016927;28;20113;-58
2022/12/29 01:11:07;;;;;;;14.85;2.05;;;;;;;8.19;100.00;98602.22;5017656;28;20501;-51
2022/12/29 01:13:33;;;;;;;16.42;2.10;;;;;;;8.18;100.00;98597.13;5022966;28;20565;-54
2022/12/29 01:15:59;;;;;;;10.60;1.48;;;;;;;8.17;100.00;98587.63;5021343;28;20108;-53
2022/12/29 01:18:25;;;;;;;16.30;3.08;;;;;;;8.01;100.00;98579.28;5021140;28;20490;-53
2022/12/29 01:20:51;;;;;;;7.80;1.73;;;;;;;7.88;100.00;98581.25;5021419;28;20034;-53
2022/12/29 01:23:16;;;;;;;14.07;2.45;;;;;;;7.75;100.00;98566.38;5020140;28;20083;-52
2022/12/29 01:25:42;;;;;;;11.80;1.88;;;;;;;7.81;100.00;98578.69;5022279;28;20038;-53
2022/12/29 01:28:08;;;;;;;10.93;2.97;;;;;;;7.81;100.00;98573.41;5021573;28;20052;-56
2022/12/29 01:30:34;;;;;;;20.25;5.25;;;;;;;7.85;100.00;98564.03;5022480;28;20059;-58
2022/12/29 01:33:00;;;;;;;7.93;1.90;;;;;;;7.84;100.00;98563.19;5015327;28;20032;-57
2022/12/29 01:35:26;;;;;;;13.43;3.35;;;;;;;7.88;100.00;98566.22;5021223;28;20025;-56
2022/12/29 01:37:51;;;;;;;9.63;3.90;;;;;;;7.77;100.00;98569.56;5020596;28;20037;-54
2022/12/29 01:40:16;;;;;;;12.77;1.65;;;;;;;7.70;100.00;98584.69;5025995;28;20033;-58
2022/12/29 01:42:42;;;;;;;6.18;1.05;;;;;;;7.68;100.00;98586.72;5017780;28;20051;-55
2022/12/29 01:45:10;;;;;;;12.93;1.90;;;;;;;7.67;100.00;98585.09;5022810;28;20524;-54
2022/12/29 01:47:48;;;;;;;8.90;2.55;;;;;;;7.63;100.00;98577.63;5020987;28;20387;-58
2022/12/29 01:50:16;;;;;;;9.75;2.35;;;;;;;7.48;100.00;98587.72;5016062;28;20045;-58
2022/12/29 01:52:51;;;;;;;9.82;1.55;;;;;;;7.28;100.00;98597.63;5019599;28;20034;-56
2022/12/29 01:55:17;;;;;;;19.08;1.50;;;;;;;7.28;100.00;98603.72;5026963;28;20026;-60
2022/12/29 01:57:49;;;;;;;12.50;3.25;;;;;;;7.44;100.00;98610.28;5025257;28;20025;-56
2022/12/29 02:00:14;;;;;;;;;;;;;;;7.65;100.00;98601.97;5028744;28;20038;-56
2022/12/29 02:02:44;;;;;;;10.30;1.90;;;;;;;7.55;100.00;98604.28;5031578;28;20301;-61
2022/12/29 02:05:28;;;;;;;12.82;1.77;;;;;;;7.59;100.00;98604.66;5025410;28;20038;-57
2022/12/29 02:07:53;;;;;;;12.55;1.52;;;;;;;7.53;100.00;98598.41;5021905;28;20025;-55
2022/12/29 02:10:21;;;;;;;9.65;1.70;;;;;;;7.48;100.00;98619.34;5021376;28;20495;-59
2022/12/29 02:12:47;;;;;;;15.18;1.70;;;;;;;7.40;100.00;98615.16;5028019;28;20045;-57
2022/12/29 02:15:13;;;;;;;7.85;0.63;;;;;;;7.37;100.00;98599.78;5035114;28;20356;-59
2022/12/29 02:17:51;;;;;;;8.10;1.70;;;;;;;7.36;100.00;98605.28;5024017;28;20100;-61
2022/12/29 02:20:51;;;;;;;14.75;2.70;;;;;;;7.32;100.00;98614.63;5028645;28;20029;-61
2022/12/29 02:23:35;;;;;;;5.72;1.35;;;;;;;7.28;100.00;98595.81;5025873;28;20386;-58
2022/12/29 02:26:09;;;;;;;10.00;1.67;;;;;;;7.45;100.00;98600.53;5034222;28;20036;-57
2022/12/29 02:29:07;;;;;;;8.50;1.30;;;;;;;7.55;100.00;98585.84;5034245;28;20147;-60
2022/12/29 02:32:03;;;;;;;11.95;2.03;;;;;;;7.57;100.00;98602.25;5035639;28;20227;-61
2022/12/29 02:34:50;;;;;;;11.25;1.10;;;;;;;7.65;100.00;98591.41;5031023;28;20084;-63
2022/12/29 02:37:23;;;;;;;5.10;1.00;;;;;;;7.71;100.00;98597.66;5030296;28;20080;-57
2022/12/29 02:40:00;;;;;;;14.55;1.40;;;;;;;7.77;100.00;98606.50;5020487;28;20465;-63
2022/12/29 02:42:52;;;;;;;7.05;1.08;;;;;;;7.78;100.00;98601.03;5029013;28;20366;-61
2022/12/29 02:45:29;;;;;;;8.93;1.90;;;;;;;7.72;100.00;98619.53;5026829;28;20065;-59
2022/12/29 02:48:20;;;;;;;17.17;3.13;;;;;;;7.79;100.00;98615.03;5033799;28;20033;-58
2022/12/29 02:51:09;;;;;;;19.27;2.50;;;;;;;7.88;100.00;98619.00;5027118;28;20048;-59
2022/12/29 02:56:20;;;;;;;12.35;2.72;;;;;;;7.97;100.00;98612.38;5021573;28;20066;-59
2022/12/29 02:58:46;;;;;;;18.00;2.75;;;;;;;8.00;100.00;98621.69;5026245;28;20033;-63
2022/12/29 03:01:37;;;;;;;19.52;4.53;;;;;;;8.07;100.00;98617.97;5029002;28;20037;-62
2022/12/29 03:04:20;;;;;;;17.30;5.60;;;;;;;7.98;100.00;98611.38;5023970;28;20130;-57
2022/12/29 03:06:52;;;;;;;12.27;2.05;;;;;;;7.97;100.00;98616.88;5034578;28;20052;-57
2022/12/29 03:09:32;;;;;;;6.88;1.58;;;;;;;7.95;100.00;98614.47;5029068;28;20373;-57
2022/12/29 03:12:19;;;;;;;14.43;1.98;;;;;;;7.91;100.00;98613.28;5028318;28;20386;-57
2022/12/29 03:17:58;;;;;;;13.43;2.20;;;;;;;8.03;100.00;98600.19;5029619;28;20039;-57
2022/12/29 03:20:31;;;;;;;19.25;3.03;;;;;;;7.98;100.00;98606.09;5024858;28;20044;-59
2022/12/29 03:23:01;;;;;;;8.50;2.20;;;;;;;7.97;100.00;98609.75;5021290;28;20406;-53
2022/12/29 03:25:33;;;;;;;18.23;1.65;;;;;;;8.04;100.00;98607.84;5033810;28;20039;-60
2022/12/29 03:28:00;;;;;;;;;;;;;;;8.16;100.00;98612.38;5027932;28;20037;-55
2022/12/29 03:30:29;;;;;;;8.55;1.77;;;;;;;8.22;100.00;98600.97;5041475;28;19917;-58
2022/12/29 03:32:57;;;;;;;14.13;3.55;;;;;;;8.28;100.00;98597.44;5021991;28;20033;-58
2022/12/29 03:35:25;;;;;;;14.65;2.00;;;;;;;8.27;100.00;98614.31;5035528;28;20036;-54
2022/12/29 03:38:14;;;;;;;10.77;2.42;;;;;;;8.37;100.00;98595.31;5025141;28;20036;-60
2022/12/29 03:40:44;;;;;;;9.57;2.60;;;;;;;8.41;100.00;98593.84;5026676;28;20033;-53
2022/12/29 03:43:10;;;;;;;7.63;1.98;;;;;;;8.37;100.00;98595.31;5035426;28;20087;-56
2022/12/29 03:45:35;;;;;;;13.63;2.67;;;;;;;8.42;100.00;98591.00;5034956;28;20112;-56
2022/12/29 03:48:01;;;;;;;14.93;2.50;;;;;;;8.39;100.00;98583.53;5027635;28;20105;-58
2022/12/29 03:50:26;;;;;;;21.92;3.20;;;;;;;8.40;100.00;98587.75;5028733;28;20038;-57
2022/12/29 03:52:51;;;;;;;20.48;2.90;;;;;;;8.39;100.00;98590.59;5019580;28;20137;-55
2022/12/29 03:55:17;;;;;;;9.82;1.30;;;;;;;8.50;100.00;98593.31;5024462;28;20049;-55
2022/12/29 03:57:42;;;;;;;19.95;2.88;;;;;;;8.45;100.00;98592.38;5026787;28;20159;-52
2022/12/29 04:00:08;;;;;;;12.48;2.50;;;;;;;8.43;100.00;98589.97;5022427;28;20502;-55
2022/12/29 04:02:33;;;;;;;13.13;1.48;;;;;;;8.62;100.00;98597.84;5031631;28;20598;-57
2022/12/29 04:04:59;;;;;;;12.02;2.25;;;;;;;8.78;100.00;98591.09;5025713;28;20017;-62
2022/12/29 04:07:24;;;;;;;11.00;1.60;;;;;;;8.76;100.00;98590.56;5028230;28;20038;-57
2022/12/29 04:09:49;;;;;;;13.77;2.35;;;;;;;8.62;100.00;98609.22;5017828;28;20468;-54
2022/12/29 04:12:15;;;;;;;16.38;1.77;;;;;;;8.58;100.00;98618.63;5022116;28;20033;-55
2022/12/29 04:14:40;;;;;;;13.63;1.73;;;;;;;8.46;100.00;98609.84;5033245;28;20524;-62
2022/12/29 04:17:06;;;;;;;7.47;0.88;;;;;;;8.49;100.00;98635.78;5033215;28;20513;-61
2022/12/29 04:19:31;;;;;;;14.25;2.05;;;;;;;8.56;100.00;98635.72;5026913;28;20030;-56
2022/12/29 04:21:56;;;;;;;11.43;3.05;;;;;;;8.65;100.00;98650.25;5030821;28;20406;-58
2022/12/29 04:24:22;;;;;;;13.60;1.55;;;;;;;8.54;100.00;98657.06;5024688;28;20128;-59
2022/12/29 04:26:47;;;;;;;12.23;2.10;;;;;;;8.46;100.00;98657.38;5031297;28;20333;-58
2022/12/29 04:29:12;;;;;;;11.40;1.83;;;;;;;8.45;100.00;98651.28;5028459;28;20502;-62
2022/12/29 04:31:38;;;;;;;7.28;1.42;;;;;;;8.42;100.00;98662.31;5036800;28;20025;-60
2022/12/29 04:34:03;;;;;;;6.65;1.30;;;;;;;8.38;100.00;98661.09;5031884;28;20696;-59
2022/12/29 04:36:28;;;;;;;9.07;1.92;;;;;;;8.46;100.00;98681.94;5032236;28;20494;-60
2022/12/29 04:38:54;;;;;;;10.80;1.77;;;;;;;8.65;100.00;98684.59;5033672;28;20021;-55
2022/12/29 04:41:19;;;;;;;13.45;2.50;;;;;;;8.62;100.00;98690.31;5029783;28;20025;-57
2022/12/29 04:43:45;;;;;;;13.07;1.88;;;;;;;8.67;100.00;98679.88;5029313;28;20108;-52
2022/12/29 04:46:10;;;;;;;4.75;0.70;;;;;;;8.66;100.00;98702.84;5022739;28;20021;-52
2022/12/29 04:48:35;;;;;;;21.83;2.75;;;;;;;8.62;100.00;98692.94;5031898;28;20054;-56
2022/12/29 04:51:01;;;;;;;12.57;0.73;;;;;;;8.65;100.00;98708.38;5025563;28;20371;-55
2022/12/29 04:53:26;;;;;;;16.45;2.20;;;;;;;8.68;100.00;98714.00;5021401;28;20208;-56
2022/12/29 04:55:52;;;;;;;10.15;3.10;;;;;;;8.67;100.00;98724.78;5033849;28;20029;-57
2022/12/29 04:58:19;;;;;;;12.20;0.85;;;;;;;8.77;100.00;98742.78;5028868;28;20047;-54
2022/12/29 05:00:44;;;;;;;7.63;2.75;;;;;;;8.70;100.00;98725.19;5023218;28;20037;-55
2022/12/29 05:03:10;;;;;;;7.70;0.55;;;;;;;8.76;100.00;98749.09;5027463;28;20418;-56
2022/12/29 05:05:35;;;;;;;5.88;1.05;;;;;;;8.72;100.00;98757.47;5030934;28;20112;-58
2022/12/29 05:08:01;;;;;;;4.63;0.10;;;;;;;8.63;100.00;98763.25;5031430;28;20032;-52
2022/12/29 05:10:26;;;;;;;6.13;0.55;;;;;;;8.57;100.00;98785.25;5021402;28;20033;-54
2022/12/29 05:12:51;;;;;;;3.22;0.30;;;;;;;8.51;100.00;98777.19;5026185;28;20037;-54
2022/12/29 05:15:17;;;;;;;4.50;0.75;;;;;;;8.36;100.00;98791.75;5032915;28;20021;-56
2022/12/29 05:17:42;;;;;;;12.35;1.65;;;;;;;8.08;100.00;98804.38;5034025;28;20020;-54
2022/12/29 05:20:08;;;;;;;0.80;0.10;;;;;;;8.31;100.00;98813.50;5040668;28;20025;-56
2022/12/29 05:22:34;;;;;;;5.32;0.50;;;;;;;8.44;100.00;98805.53;5022302;28;20037;-52
2022/12/29 05:24:59;;;;;;;5.80;0.85;;;;;;;8.26;100.00;98816.00;5025690;28;20086;-52
2022/12/29 05:27:25;;;;;;;2.47;0.10;;;;;;;8.15;100.00;98828.06;5030616;28;20052;-55
2022/12/29 05:29:50;;;;;;;6.22;0.63;;;;;;;8.15;100.00;98825.44;5039859;28;20052;-57
2022/12/29 05:32:15;;;;;;;4.20;0.52;;;;;;;8.14;100.00;98836.22;5030629;28;20095;-57
2022/12/29 05:34:41;;;;;;;1.05;0.40;;;;;;;8.08;100.00;98851.91;5032618;28;20067;-55
2022/12/29 05:37:06;;;;;;;3.60;0.30;;;;;;;8.10;100.00;98854.31;5031963;28;20036;-55
2022/12/29 05:39:31;;;;;;;9.98;0.55;;;;;;;8.02;100.00;98863.28;5022763;28;20040;-56
2022/12/29 05:41:57;;;;;;;1.77;0.00;;;;;;;7.99;100.00;98863.72;5027337;28;20080;-54
2022/12/29 05:44:23;;;;;;;0.50;0.10;;;;;;;7.93;100.00;98859.31;5027259;28;20044;-55
2022/12/29 05:46:48;;;;;;;3.92;1.65;;;;;;;7.84;100.00;98864.00;5022777;28;20026;-54
2022/12/29 05:49:14;;;;;;;3.70;0.10;;;;;;;7.80;100.00;98877.88;5031946;28;20143;-57
2022/12/29 05:51:40;;;;;;;2.05;0.13;;;;;;;7.60;100.00;98886.69;5033302;28;20456;-55
2022/12/29 05:54:05;;;;;;;1.17;0.52;;;;;;;7.50;100.00;98896.88;5032555;28;20034;-54
2022/12/29 05:56:31;;;;;;;4.18;0.43;;;;;;;7.37;100.00;98912.75;5024629;28;20040;-53
2022/12/29 05:58:56;;;;;;;2.17;0.75;;;;;;;7.36;100.00;98926.97;5032837;28;20603;-58
2022/12/29 06:01:21;;;;;;;1.10;0.15;;;;;;;7.25;100.00;98930.22;5029892;28;20471;-57
2022/12/29 06:03:47;;;;;;;2.40;0.80;;;;;;;7.03;100.00;98932.31;5030846;28;20534;-52
2022/12/29 06:06:12;;;;;;;6.22;0.13;;;;;;;7.09;100.00;98926.19;5031045;28;20111;-55
2022/12/29 06:08:38;;;;;;;3.67;0.43;;;;;;;7.06;100.00;98937.97;5030759;28;20040;-58
2022/12/29 06:11:03;;;;;;;2.08;0.60;;;;;;;7.10;100.00;98948.91;5027427;28;20037;-58
2022/12/29 06:13:28;;;;;;;3.83;0.03;;;;;;;7.05;100.00;98949.53;5028466;28;20032;-58
2022/12/29 06:15:54;;;;;;;3.17;1.17;;;;;;;7.04;100.00;98962.91;5023515;28;20040;-54
2022/12/29 06:18:19;;;;;;;1.77;0.10;;;;;;;7.08;100.00;98982.59;5032455;28;20037;-58
2022/12/29 06:20:45;;;;;;;1.00;0.17;;;;;;;7.19;100.00;98987.22;5024508;28;20063;-55
2022/12/29 06:23:11;;;;;;;4.32;0.90;;;;;;;7.21;100.00;98988.63;5023970;28;20112;-56
2022/12/29 06:25:37;;;;;;;2.35;0.17;;;;;;;7.08;100.00;98988.66;5026061;28;20040;-55
2022/12/29 06:28:03;;;;;;;1.80;0.52;;;;;;;6.97;100.00;98999.81;5025925;28;20361;-54
2022/12/29 06:30:28;;;;;;;7.03;0.20;;;;;;;6.91;100.00;99009.31;5030903;28;20466;-55
2022/12/29 06:32:54;;;;;;;0.60;0.00;;;;;;;6.78;100.00;99011.97;5017307;28;20076;-56
2022/12/29 06:35:21;;;;;;;1.48;0.20;;;;;;;6.79;100.00;99013.59;5024946;28;20028;-56
2022/12/29 06:37:46;;;;;;;3.25;0.20;;;;;;;6.66;100.00;99017.03;5025193;28;20360;-55
2022/12/29 06:40:11;;;;;;;1.75;0.52;;;;;;;6.86;100.00;99022.31;5016043;28;20048;-57
2022/12/29 06:42:37;;;;;;;1.30;0.10;;;;;;;7.12;100.00;99020.69;5032467;28;20061;-55
2022/12/29 06:45:03;;;;;;;1.02;0.10;;;;;;;7.12;100.00;99021.47;5025595;28;20026;-57
2022/12/29 06:47:28;;;;;;;3.47;0.40;;;;;;;6.95;100.00;99030.84;5031096;28;20025;-57
2022/12/29 06:49:53;;;;;;;1.27;0.35;;;;;;;6.81;100.00;99029.19;5032427;28;20148;-53
2022/12/29 06:52:19;;;;;;;1.42;0.38;;;;;;;6.72;100.00;99026.75;5027928;28;20033;-55
2022/12/29 06:54:44;;;;;;;6.72;0.25;;;;;;;6.52;100.00;99023.28;5025521;28;20494;-58
2022/12/29 06:57:10;;;;;;;3.95;0.10;;;;;;;6.44;100.00;99036.66;5033734;28;20508;-56
2022/12/29 06:59:35;;;;;;;3.20;0.10;;;;;;;6.34;100.00;99050.97;5030493;28;20022;-57
2022/12/29 07:02:01;;;;;;;3.55;0.10;;;;;;;6.34;100.00;99061.50;5019927;28;20458;-55
2022/12/29 07:04:27;;;;;;;1.20;0.10;;;;;;;6.63;100.00;99071.91;5021203;28;20030;-54
2022/12/29 07:06:53;;;;;;;2.80;0.22;;;;;;;6.63;100.00;99077.19;5032329;28;20040;-59
2022/12/29 07:09:18;;;;;;;2.83;1.73;;;;;;;6.37;100.00;99075.31;5022407;28;20048;-57
2022/12/29 07:11:43;;;;;;;5.60;0.98;;;;;;;6.46;100.00;99072.28;5021996;28;20125;-55
2022/12/29 07:14:10;;;;;;;7.72;0.32;;;;;;;6.33;100.00;99080.16;5021112;28;20055;-59
2022/12/29 07:16:36;;;;;;;4.75;0.25;;;;;;;6.38;100.00;99085.66;5028996;28;20037;-57
2022/12/29 07:19:02;;;;;;;0.70;0.25;;;;;;;6.51;100.00;99082.25;5024146;28;20033;-57
2022/12/29 07:21:27;;;;;;;1.48;0.10;;;;;;;6.34;100.00;99092.31;5028050;28;20039;-55
2022/12/29 07:23:53;;;;;;;5.28;0.22;;;;;;;6.21;100.00;99095.69;5021495;28;20091;-57
2022/12/29 07:26:19;;;;;;;9.13;2.13;;;;;;;6.02;100.00;99097.25;5022403;28;20039;-54
2022/12/29 07:28:44;;;;;;;4.18;0.40;;;;;;;6.21;100.00;99089.63;5029557;28;20434;-58
2022/12/29 07:31:16;;;;;;;2.53;0.20;;;;;;;6.26;100.00;99101.19;5027016;28;20029;-59
2022/12/29 07:33:41;;;;;;;3.40;0.32;;;;;;;6.16;100.00;99105.19;5017625;28;20021;-55
2022/12/29 07:36:07;;;;;;;1.98;0.50;;;;;;;6.08;100.00;99109.59;5020715;28;20029;-56
2022/12/29 07:38:32;;;;;;;4.60;0.20;;;;;;;6.22;100.00;99115.75;5030251;28;20083;-55
2022/12/29 07:40:58;;;;;;;2.13;0.17;;;;;;;6.18;100.00;99117.16;5023275;28;20060;-55
2022/12/29 07:43:23;;;;;;;6.43;0.30;;;;;;;6.07;100.00;99122.97;5023906;28;20033;-57
2022/12/29 07:45:48;;;;;;;2.35;0.68;;;;;;;6.08;100.00;99133.28;5018594;28;20047;-54
2022/12/29 07:48:14;;;;;;;1.60;0.30;;;;;;;6.13;100.00;99131.91;5028372;28;20083;-57
2022/12/29 07:50:39;;;;;;;5.90;1.75;;;;;;;6.07;100.00;99144.84;5018909;28;20069;-60
2022/12/29 07:53:04;;;;;;;1.38;0.22;;;;;;;6.18;100.00;99148.72;5024928;28;20253;-57
2022/12/29 07:55:30;;;;;;;14.65;1.88;;;;;;;6.24;100.00;99140.03;5020794;28;20033;-57
2022/12/29 07:57:56;;;;;;;0.82;0.32;;;;;;;6.31;100.00;99140.91;5028017;28;20042;-57
2022/12/29 08:00:22;;;;;;;3.63;1.30;;;;;;;6.27;100.00;99144.09;5021719;28;20029;-53
2022/12/29 08:02:47;;;;;;;7.53;0.43;;;;;;;6.38;100.00;99151.47;5029635;28;20030;-57
2022/12/29 08:05:13;;;;;;;4.50;0.17;;;;;;;6.36;100.00;99152.66;5019502;28;20029;-59
2022/12/29 08:07:38;;;;;;;1.75;0.73;;;;;;;6.28;100.00;99156.28;5019831;28;20044;-56
2022/12/29 08:10:04;;;;;;;6.68;0.75;;;;;;;6.33;100.00;99154.69;5025153;28;20040;-55
2022/12/29 08:12:29;;;;;;;4.70;0.73;;;;;;;6.28;100.00;99159.72;5024923;28;20033;-57
2022/12/29 08:14:55;;;;;;;9.02;0.38;;;;;;;6.21;100.00;99160.69;5028289;28;20040;-56
2022/12/29 08:17:20;;;;;;;2.92;0.63;;;;;;;6.21;100.00;99169.38;5018928;28;20091;-58
2022/12/29 08:19:46;;;;;;;4.43;0.40;;;;;;;6.21;100.00;99185.19;5011228;28;20036;-55
2022/12/29 08:22:13;;;;;;;11.43;1.25;;;;;;;6.24;100.00;99182.16;5020885;28;20044;-57
2022/12/29 08:24:39;;;;;;;4.13;0.57;;;;;;;6.27;100.00;99194.97;5014032;28;20042;-57
2022/12/29 08:27:04;;;;;;;3.78;0.55;;;;;;;6.23;100.00;99198.97;5016311;28;20099;-56
2022/12/29 08:29:29;;;;;;;2.58;0.15;;;;;;;6.26;100.00;99214.38;5022382;28;20112;-53
2022/12/29 08:31:54;;;;;;;10.20;2.03;;;;;;;6.43;100.00;99208.78;5026440;28;20057;-58
2022/12/29 08:34:20;;;;;;;2.50;0.30;;;;;;;6.67;100.00;99224.09;5024723;28;20073;-56
2022/12/29 08:36:45;;;;;;;5.55;1.33;;;;;;;6.83;100.00;99232.69;5017821;28;20112;-56
2022/12/29 08:39:11;;;;;;;6.72;1.10;;;;;;;6.88;100.00;99235.53;5019456;28;20065;-59
2022/12/29 08:41:36;;;;;;;3.25;0.22;;;;;;;6.91;100.00;99241.22;5030685;28;20030;-56
2022/12/29 08:44:01;;;;;;;4.60;1.17;;;;;;;6.95;100.00;99252.19;5018366;28;20026;-58
2022/12/29 08:46:27;;;;;;;7.55;1.30;;;;;;;6.95;100.00;99252.19;5017968;28;20037;-54
2022/12/29 08:48:54;;;;;;;3.13;0.17;;;;;;;6.97;100.00;99250.16;5016093;28;20127;-57
2022/12/29 08:51:19;;;;;;;0.68;0.30;;;;;;;6.94;100.00;99255.81;5017900;28;20017;-55
2022/12/29 08:53:44;;;;;;;3.20;0.38;;;;;;;6.86;100.00;99263.88;5013826;28;20048;-54
2022/12/29 08:56:11;;;;;;;8.02;0.40;;;;;;;6.77;100.00;99271.16;5012570;28;20064;-54
2022/12/29 08:58:37;;;;;;;1.35;0.43;;;;;;;6.70;100.00;99273.75;5012043;28;20041;-57
2022/12/29 09:01:04;;;;;;;8.23;1.35;;;;;;;6.61;100.00;99293.38;5019566;28;20041;-53
2022/12/29 09:03:29;;;;;;;1.05;0.40;;;;;;;6.63;100.00;99286.06;5023391;28;20041;-56
2022/12/29 09:05:55;;;;;;;0.70;0.20;;;;;;;6.63;100.00;99301.88;5032461;28;20025;-56
2022/12/29 09:08:21;;;;;;;0.10;0.00;;;;;;;6.57;100.00;99305.28;5030691;28;20041;-56
2022/12/29 09:10:47;;;;;;;0.45;0.00;;;;;;;6.47;100.00;99312.72;5030516;28;20073;-52
2022/12/29 09:13:13;;;;;;;0.10;0.00;;;;;;;6.39;100.00;99303.16;5036001;28;20434;-59
2022/12/29 09:15:38;;;;;;;10.43;0.70;;;;;;;6.43;100.00;99300.94;5029890;28;20159;-57
2022/12/29 09:18:05;;;;;;;1.95;0.00;;;;;;;6.40;100.00;99317.97;5031290;28;20124;-58
2022/12/29 09:20:30;;;;;;;2.03;0.05;;;;;;;6.36;100.00;99332.50;5037905;28;20040;-58
2022/12/29 09:22:55;;;;;;;2.20;0.47;;;;;;;6.43;100.00;99327.25;5029192;28;20026;-53
2022/12/29 09:25:24;;;;;;;1.27;0.85;;;;;;;6.40;100.00;99335.56;5027224;28;20039;-60
2022/12/29 09:27:49;;;;;;;1.23;0.00;;;;;;;6.44;100.00;99342.06;5030091;28;20030;-56
2022/12/29 09:30:14;;;;;;;5.30;0.08;;;;;;;6.32;100.00;99336.50;5041851;28;20044;-60
2022/12/29 09:32:40;;;;;;;0.25;0.00;;;;;;;6.32;100.00;99344.41;5031135;28;20045;-60
2022/12/29 09:35:06;;;;;;;0.28;0.00;;;;;;;6.43;100.00;99346.53;5035858;28;20112;-59
2022/12/29 09:37:32;;;;;;;0.00;0.00;;;;;;;6.48;100.00;99361.72;5030751;28;20120;-59
2022/12/29 09:39:57;;;;;;;0.10;0.00;;;;;;;6.59;100.00;99358.59;5023729;28;20021;-58
2022/12/29 09:42:28;;;;;;;0.95;0.00;;;;;;;6.75;100.00;99371.44;5025231;28;20034;-54
2022/12/29 09:45:06;;;;;;;0.20;0.00;;;;;;;6.80;100.00;99381.41;5028113;28;20038;-60
2022/12/29 09:47:32;;;;;;;1.55;0.95;;;;;;;6.66;100.00;99383.16;5026405;28;20087;-60
2022/12/29 09:50:08;;;;;;;0.00;0.00;;;;;;;6.78;100.00;99392.13;5028705;28;20435;-57
2022/12/29 09:52:50;;;;;;;3.20;0.43;;;;;;;7.03;100.00;99396.97;5020183;28;20195;-59
2022/12/29 09:55:20;;;;;;;1.60;0.00;;;;;;;6.83;100.00;99401.31;5024198;28;20036;-55
2022/12/29 09:57:51;;;;;;;1.60;0.05;;;;;;;6.91;100.00;99407.22;5011641;28;20494;-59
2022/12/29 10:00:19;;;;;;;3.40;0.57;;;;;;;6.86;100.00;99393.00;5020629;28;20033;-56
2022/12/29 10:02:57;;;;;;;0.63;0.30;;;;;;;6.85;100.00;99392.19;5023251;28;20646;-58
2022/12/29 10:05:45;;;;;;;1.08;0.00;;;;;;;6.78;100.00;99391.34;5015702;28;20022;-58
2022/12/29 10:08:29;;;;;;;2.15;0.00;;;;;;;6.77;100.00;99387.09;5015230;28;20033;-58
2022/12/29 10:10:58;;;;;;;1.27;0.43;;;;;;;6.73;100.00;99397.16;5019496;28;20493;-62
2022/12/29 10:13:50;;;;;;;3.60;0.55;;;;;;;6.73;100.00;99401.63;5026726;28;20022;-59
2022/12/29 10:16:23;;;;;;;1.45;1.00;;;;;;;6.74;100.00;99398.81;5017280;28;20265;-59
2022/12/29 10:19:46;;;;;;;0.00;0.00;;;;;;;6.62;100.00;99394.28;5008748;28;20040;-58
2022/12/29 10:22:14;;;;;;;0.57;0.00;;;;;;;6.52;100.00;99405.13;5033720;28;20044;-59
2022/12/29 10:24:39;;;;;;;6.35;0.20;;;;;;;6.54;100.00;99403.13;5030964;28;20051;-60
2022/12/29 10:27:11;;;;;;;4.38;0.10;;;;;;;6.58;100.00;99411.44;5018786;28;20046;-58
2022/12/29 10:29:43;;;;;;;4.13;0.93;;;;;;;6.60;100.00;99407.63;5012191;28;20119;-59
2022/12/29 10:32:35;;;;;;;0.20;0.10;;;;;;;6.86;100.00;99427.25;5015856;28;20419;-59
2022/12/29 10:35:11;;;;;;;1.50;0.00;;;;;;;6.99;100.00;99414.97;5017916;28;20096;-55
2022/12/29 10:37:46;;;;;;;7.00;0.45;;;;;;;7.10;100.00;99424.19;5009651;28;20054;-58
2022/12/29 10:40:35;;;;;;;3.00;0.13;;;;;;;7.09;100.00;99413.81;5008072;28;20127;-61
2022/12/29 10:43:05;;;;;;;1.55;0.20;;;;;;;7.13;100.00;99417.72;5011848;28;20474;-56
2022/12/29 10:45:33;;;;;;;0.60;0.03;;;;;;;7.15;100.00;99416.50;5015008;28;20018;-58
2022/12/29 10:48:13;;;;;;;4.10;0.00;;;;;;;7.08;100.00;99418.28;5010009;28;20029;-59
2022/12/29 10:50:42;;;;;;;2.55;0.30;;;;;;;6.94;100.00;99414.75;5011453;28;20086;-58
2022/12/29 10:53:17;;;;;;;5.13;1.05;;;;;;;6.93;100.00;99426.28;5012242;28;20084;-58
2022/12/29 10:55:43;;;;;;;2.83;0.10;;;;;;;7.06;100.00;99425.56;5018790;28;20432;-59
2022/12/29 10:58:12;;;;;;;4.18;0.38;;;;;;;7.14;100.00;99409.59;5015533;28;20072;-56
2022/12/29 11:00:38;;;;;;;3.40;0.50;;;;;;;7.13;100.00;99417.72;5019344;28;20026;-57
2022/12/29 11:03:23;;;;;;;0.47;0.45;;;;;;;7.03;100.00;99409.34;5019802;28;20514;-58
2022/12/29 11:05:56;;;;;;;3.17;0.35;;;;;;;7.12;100.00;99406.31;5018711;28;20049;-56
2022/12/29 11:08:33;;;;;;;1.05;0.65;;;;;;;7.33;100.00;99423.91;5018002;28;20025;-59
2022/12/29 11:11:04;;;;;;;3.45;0.40;;;;;;;7.39;100.00;99414.38;5016168;28;20035;-56
2022/12/29 11:13:46;;;;;;;7.15;0.75;;;;;;;7.51;100.00;99426.00;5019349;28;20018;-59
2022/12/29 11:16:11;;;;;;;0.63;0.00;;;;;;;7.53;100.00;99413.41;5017742;28;20040;-58
2022/12/29 11:18:40;;;;;;;0.95;0.10;;;;;;;7.54;100.00;99425.63;5011704;28;20022;-55
2022/12/29 11:21:32;;;;;;;3.72;0.40;;;;;;;7.45;100.00;99410.97;5011229;28;20461;-59
2022/12/29 11:24:04;;;;;;;2.08;0.52;;;;;;;7.45;100.00;99416.22;5006591;28;20084;-55
2022/12/29 11:26:30;;;;;;;;;;;;;;;7.52;100.00;99416.28;5011818;28;20025;-61
2022/12/29 11:29:07;;;;;;;3.50;1.27;;;;;;;7.50;100.00;99411.19;5013369;28;19924;-60
2022/12/29 11:31:47;;;;;;;3.03;0.50;;;;;;;7.38;100.00;99415.38;5015323;28;20053;-58
2022/12/29 11:34:25;;;;;;;3.72;0.15;;;;;;;7.29;100.00;99413.94;5014016;28;20034;-57
2022/12/29 11:36:53;;;;;;;10.55;0.57;;;;;;;7.24;100.00;99406.59;5019603;28;20452;-62
2022/12/29 11:39:32;;;;;;;4.85;1.70;;;;;;;7.42;100.00;99414.00;5016751;28;20025;-59
2022/12/29 11:41:58;;;;;;;1.30;0.10;;;;;;;7.39;100.00;99425.75;5019495;28;20025;-56
2022/12/29 11:44:24;;;;;;;7.35;1.00;;;;;;;7.39;100.00;99436.28;5024490;28;20374;-57
2022/12/29 11:46:52;;;;;;;1.23;0.20;;;;;;;7.46;100.00;99420.50;5023484;28;20025;-55
2022/12/29 11:49:24;;;;;;;2.28;0.93;;;;;;;7.42;100.00;99421.91;5027823;28;20077;-58
2022/12/29 11:51:51;;;;;;;5.53;0.50;;;;;;;7.33;100.00;99425.69;5024562;28;20501;-59
2022/12/29 11:54:37;;;;;;;4.13;0.20;;;;;;;7.27;100.00;99429.13;5019628;28;20025;-54
2022/12/29 11:57:17;;;;;;;6.03;0.25;;;;;;;7.30;100.00;99426.09;5020235;28;20026;-54
2022/12/29 11:59:49;;;;;;;3.45;0.82;;;;;;;7.32;100.00;99422.25;5024061;28;20029;-58
2022/12/29 12:02:20;;;;;;;2.33;0.17;;;;;;;7.47;100.00;99419.50;5023473;28;20459;-59
2022/12/29 12:04:49;;;;;;;9.52;1.10;;;;;;;7.59;100.00;99427.63;5023331;28;20025;-59
2022/12/29 12:07:22;;;;;;;3.97;0.82;;;;;;;7.70;100.00;99424.44;5026692;28;20095;-58
2022/12/29 12:09:56;;;;;;;4.93;0.60;;;;;;;7.73;100.00;99418.78;5030122;28;20051;-57
2022/12/29 12:12:32;;;;;;;6.55;1.00;;;;;;;7.90;100.00;99428.97;5036192;28;20029;-57
2022/12/29 12:14:59;;;;;;;3.65;0.30;;;;;;;7.83;100.00;99434.25;5026349;28;20053;-58